createdAt,value
2018-01-16T00:02:22.602Z,75.10
2018-01-16T00:04:55.280Z,75.10
2018-01-16T00:07:27.779Z,74.90
2018-01-16T00:10:01.252Z,74.60
2018-01-16T00:12:33.954Z,74.60
2018-01-16T00:15:06.546Z,75.10
2018-01-16T00:17:39.049Z,74.30
2018-01-16T00:20:11.768Z,74.00
2018-01-16T00:22:44.269Z,73.80
2018-01-16T00:25:17.758Z,72.90
2018-01-16T00:27:50.429Z,72.90
2018-01-16T00:30:22.995Z,72.20
2018-01-16T00:32:55.589Z,72.20
2018-01-16T00:35:28.654Z,72.20
2018-01-16T00:38:01.240Z,72.40
2018-01-16T00:40:33.960Z,72.30
2018-01-16T00:43:06.631Z,71.80
2018-01-16T00:45:40.037Z,70.10
2018-01-16T00:48:13.217Z,70.70
2018-01-16T00:50:45.969Z,70.60
2018-01-16T00:53:18.582Z,70.30
2018-01-16T00:55:50.974Z,68.80
2018-01-16T00:58:23.510Z,68.10
2018-01-16T01:00:56.134Z,68.40
2018-01-16T01:03:29.432Z,69.20
2018-01-16T01:06:02.899Z,67.50
2018-01-16T01:08:35.706Z,67.50
2018-01-16T01:11:08.995Z,68.10
2018-01-16T01:13:41.655Z,69.00
2018-01-16T01:16:14.292Z,70.00
2018-01-16T01:18:47.765Z,70.00
2018-01-16T01:21:22.023Z,69.40
2018-01-16T01:23:54.784Z,69.50
2018-01-16T01:26:27.284Z,68.50
2018-01-16T01:29:00.690Z,69.00
2018-01-16T01:31:34.388Z,69.20
2018-01-16T01:34:07.202Z,69.20
2018-01-16T01:36:39.778Z,70.10
2018-01-16T01:39:12.804Z,70.20
2018-01-16T01:41:46.213Z,69.80
2018-01-16T01:44:19.027Z,69.80
2018-01-16T01:46:51.502Z,70.10
2018-01-16T01:49:24.657Z,70.70
2018-01-16T01:51:57.701Z,71.00
2018-01-16T01:54:30.855Z,71.60
2018-01-16T01:57:05.101Z,72.40
2018-01-16T01:59:38.610Z,72.40
2018-01-16T02:02:11.419Z,73.00
2018-01-16T02:04:44.843Z,73.00
2018-01-16T02:07:17.753Z,73.10
2018-01-16T02:09:50.391Z,72.80
2018-01-16T02:12:23.059Z,72.40
2018-01-16T02:14:55.794Z,72.40
2018-01-16T02:17:28.282Z,72.40
2018-01-16T02:20:00.806Z,72.40
2018-01-16T02:22:33.307Z,73.10
2018-01-16T02:25:06.912Z,72.40
2018-01-16T02:27:40.369Z,72.50
2018-01-16T02:30:13.295Z,72.80
2018-01-16T02:32:46.607Z,73.10
2018-01-16T02:35:19.124Z,73.70
2018-01-16T02:37:51.606Z,73.60
2018-01-16T02:40:24.757Z,73.70
2018-01-16T02:42:57.980Z,73.70
2018-01-16T02:45:31.378Z,73.70
2018-01-16T02:48:03.946Z,73.70
2018-01-16T02:50:37.984Z,73.50
2018-01-16T02:53:11.510Z,73.50
2018-01-16T02:55:44.050Z,73.50
2018-01-16T02:58:16.673Z,73.70
2018-01-16T03:00:49.364Z,73.80
2018-01-16T03:03:22.105Z,73.60
2018-01-16T03:05:56.238Z,73.60
2018-01-16T03:08:29.305Z,73.60
2018-01-16T03:11:02.165Z,74.00
2018-01-16T03:13:35.543Z,73.60
2018-01-16T03:16:08.731Z,73.60
2018-01-16T03:18:41.225Z,73.70
2018-01-16T03:21:13.710Z,73.90
2018-01-16T03:23:46.282Z,74.00
2018-01-16T03:26:20.481Z,74.20
2018-01-16T03:28:53.366Z,74.20
2018-01-16T03:31:26.798Z,73.90
2018-01-16T03:33:59.843Z,73.90
2018-01-16T03:36:33.925Z,73.80
2018-01-16T03:39:06.912Z,73.70
2018-01-16T03:41:40.300Z,73.90
2018-01-16T03:44:13.268Z,73.70
2018-01-16T03:46:45.811Z,73.60
2018-01-16T03:49:18.294Z,73.60
2018-01-16T03:51:50.836Z,73.80
2018-01-16T03:54:24.133Z,73.60
2018-01-16T03:56:57.078Z,73.70
2018-01-16T03:59:29.470Z,73.90
2018-01-16T04:02:02.831Z,74.00
2018-01-16T04:04:35.919Z,74.10
2018-01-16T04:07:08.577Z,74.10
2018-01-16T04:09:41.772Z,74.10
2018-01-16T04:12:14.545Z,74.00
2018-01-16T04:14:47.210Z,74.80
2018-01-16T04:17:20.186Z,74.10
2018-01-16T04:19:52.817Z,74.20
2018-01-16T04:22:25.574Z,74.30
2018-01-16T04:24:58.253Z,74.40
2018-01-16T04:27:31.022Z,74.80
2018-01-16T04:30:03.538Z,74.90
2018-01-16T04:32:36.074Z,74.60
2018-01-16T04:35:10.106Z,74.60
2018-01-16T04:37:43.132Z,74.60
2018-01-16T04:40:15.648Z,74.30
2018-01-16T04:42:48.574Z,74.30
2018-01-16T04:45:21.924Z,74.40
2018-01-16T04:47:54.746Z,74.40
2018-01-16T04:50:28.027Z,74.40
2018-01-16T04:53:00.810Z,74.30
2018-01-16T04:55:34.062Z,74.30
2018-01-16T04:58:06.773Z,73.90
2018-01-16T05:00:39.132Z,74.00
2018-01-16T05:03:11.680Z,74.00
2018-01-16T05:05:45.029Z,74.20
2018-01-16T05:08:21.919Z,74.20
2018-01-16T05:10:55.069Z,74.30
2018-01-16T05:13:28.414Z,74.30
2018-01-16T05:16:01.738Z,74.40
2018-01-16T05:18:34.786Z,74.30
2018-01-16T05:21:07.992Z,74.40
2018-01-16T05:23:41.498Z,74.30
2018-01-16T05:26:13.921Z,74.40
2018-01-16T05:28:47.440Z,74.30
2018-01-16T05:31:21.003Z,74.20
2018-01-16T05:33:54.261Z,74.10
2018-01-16T05:36:26.851Z,74.10
2018-01-16T05:38:59.676Z,73.90
2018-01-16T05:41:32.948Z,73.80
2018-01-16T05:44:05.673Z,73.70
2018-01-16T05:46:38.929Z,74.00
2018-01-16T05:49:11.723Z,73.50
2018-01-16T05:51:44.351Z,73.60
2018-01-16T05:54:16.920Z,73.50
2018-01-16T05:56:49.531Z,73.20
2018-01-16T05:59:22.088Z,73.20
2018-01-16T06:01:55.523Z,73.00
2018-01-16T06:04:28.018Z,73.00
2018-01-16T06:07:01.326Z,73.40
2018-01-16T06:09:34.232Z,73.50
2018-01-16T06:12:07.793Z,73.40
2018-01-16T06:14:41.021Z,73.20
2018-01-16T06:17:13.744Z,73.20
2018-01-16T06:19:46.346Z,73.40
2018-01-16T06:22:18.886Z,73.20
2018-01-16T06:24:52.044Z,73.10
2018-01-16T06:27:25.374Z,73.20
2018-01-16T06:29:58.945Z,73.10
2018-01-16T06:32:31.692Z,73.10
2018-01-16T06:35:04.277Z,73.10
2018-01-16T06:37:37.723Z,72.70
2018-01-16T06:40:10.652Z,72.70
2018-01-16T06:42:43.361Z,72.80
2018-01-16T06:45:15.913Z,72.90
2018-01-16T06:47:48.625Z,72.90
2018-01-16T06:50:22.081Z,72.80
2018-01-16T06:52:54.841Z,72.80
2018-01-16T06:55:27.367Z,72.90
2018-01-16T06:58:01.022Z,72.90
2018-01-16T07:00:33.570Z,72.90
2018-01-16T07:03:06.249Z,72.60
2018-01-16T07:05:38.744Z,72.40
2018-01-16T07:08:12.806Z,72.30
2018-01-16T07:10:45.658Z,72.30
2018-01-16T07:13:19.045Z,72.30
2018-01-16T07:15:51.846Z,72.20
2018-01-16T07:18:25.194Z,72.20
2018-01-16T07:20:57.862Z,72.10
2018-01-16T07:23:31.068Z,72.50
2018-01-16T07:26:04.671Z,72.30
2018-01-16T07:28:37.654Z,72.20
2018-01-16T07:31:10.472Z,72.20
2018-01-16T07:33:43.040Z,72.10
2018-01-16T07:36:15.900Z,72.20
2018-01-16T07:38:49.215Z,72.20
2018-01-16T07:41:22.265Z,72.30
2018-01-16T07:43:54.715Z,72.30
2018-01-16T07:46:27.704Z,72.30
2018-01-16T07:49:01.875Z,72.30
2018-01-16T07:51:34.573Z,72.30
2018-01-16T07:54:07.932Z,71.90
2018-01-16T07:56:40.912Z,71.90
2018-01-16T07:59:13.549Z,71.60
2018-01-16T08:01:46.135Z,71.30
2018-01-16T08:04:18.590Z,71.20
2018-01-16T08:06:50.993Z,70.90
2018-01-16T08:09:24.275Z,70.70
2018-01-16T08:11:57.712Z,70.10
2018-01-16T08:14:30.549Z,69.60
2018-01-16T08:17:03.170Z,69.30
2018-01-16T08:19:35.579Z,69.20
2018-01-16T08:22:08.969Z,68.90
2018-01-16T08:24:41.880Z,68.90
2018-01-16T08:27:14.375Z,68.60
2018-01-16T08:29:46.905Z,68.20
2018-01-16T08:32:19.447Z,67.70
2018-01-16T08:34:51.920Z,67.60
2018-01-16T08:37:24.559Z,67.10
2018-01-16T08:39:58.030Z,65.90
2018-01-16T08:42:30.827Z,65.90
2018-01-16T08:45:03.352Z,66.10
2018-01-16T08:47:36.260Z,66.40
2018-01-16T08:50:08.697Z,66.30
2018-01-16T08:52:41.393Z,65.50
2018-01-16T08:55:14.816Z,65.00
2018-01-16T08:57:47.631Z,63.60
2018-01-16T09:00:21.290Z,64.10
2018-01-16T09:02:53.953Z,64.10
2018-01-16T09:05:26.671Z,64.20
2018-01-16T09:07:59.141Z,64.70
2018-01-16T09:10:32.637Z,65.40
2018-01-16T09:13:05.314Z,65.40
2018-01-16T09:15:38.002Z,65.20
2018-01-16T09:18:10.713Z,65.30
2018-01-16T09:20:43.533Z,65.90
2018-01-16T09:23:16.818Z,67.30
2018-01-16T09:25:49.539Z,68.50
2018-01-16T09:28:22.853Z,68.50
2018-01-16T09:30:55.716Z,68.40
2018-01-16T09:33:29.087Z,68.80
2018-01-16T09:36:01.650Z,68.50
2018-01-16T09:38:34.418Z,68.30
2018-01-16T09:41:07.668Z,67.70
2018-01-16T09:43:40.664Z,67.40
2018-01-16T09:46:14.018Z,67.40
2018-01-16T09:48:47.542Z,67.20
2018-01-16T09:51:20.513Z,67.20
2018-01-16T09:53:53.033Z,66.90
2018-01-16T09:56:27.225Z,67.00
2018-01-16T09:58:59.955Z,66.90
2018-01-16T10:01:33.146Z,67.00
2018-01-16T10:04:06.678Z,66.30
2018-01-16T10:06:39.674Z,66.30
2018-01-16T10:09:13.198Z,65.50
2018-01-16T10:11:46.106Z,65.50
2018-01-16T10:14:19.694Z,64.70
2018-01-16T10:16:53.401Z,63.90
2018-01-16T10:19:26.706Z,63.90
2018-01-16T10:21:59.266Z,62.50
2018-01-16T10:24:31.810Z,62.50
2018-01-16T10:27:04.366Z,62.10
2018-01-16T10:29:37.194Z,62.60
2018-01-16T10:32:12.119Z,63.40
2018-01-16T10:34:45.452Z,63.40
2018-01-16T10:37:17.961Z,64.30
2018-01-16T10:39:50.550Z,64.30
2018-01-16T10:42:23.741Z,64.80
2018-01-16T10:44:56.441Z,64.80
2018-01-16T10:47:28.944Z,64.60
2018-01-16T10:50:01.623Z,64.60
2018-01-16T10:52:34.946Z,65.00
2018-01-16T10:55:07.817Z,65.00
2018-01-16T10:57:40.326Z,65.20
2018-01-16T11:00:13.772Z,65.00
2018-01-16T11:02:46.554Z,65.50
2018-01-16T11:05:19.272Z,65.30
2018-01-16T11:07:51.712Z,65.40
2018-01-16T11:10:25.082Z,65.20
2018-01-16T11:12:58.253Z,64.30
2018-01-16T11:15:30.882Z,64.30
2018-01-16T11:18:04.198Z,64.10
2018-01-16T11:20:37.323Z,64.50
2018-01-16T11:23:09.773Z,64.30
2018-01-16T11:25:42.406Z,64.80
2018-01-16T11:28:16.117Z,65.40
2018-01-16T11:30:49.546Z,65.50
2018-01-16T11:33:22.777Z,65.80
2018-01-16T11:35:55.622Z,65.80
2018-01-16T11:38:28.294Z,66.10
2018-01-16T11:41:01.070Z,66.20
2018-01-16T11:43:33.767Z,66.60
2018-01-16T11:46:06.397Z,66.70
2018-01-16T11:48:38.902Z,66.70
2018-01-16T11:51:11.501Z,66.60
2018-01-16T11:53:44.811Z,67.00
2018-01-16T11:56:17.709Z,67.00
2018-01-16T11:58:50.338Z,66.40
2018-01-16T12:01:22.794Z,66.60
2018-01-16T12:03:55.479Z,66.80
2018-01-16T12:06:28.897Z,66.80
2018-01-16T12:09:02.417Z,67.20
2018-01-16T12:11:35.660Z,68.50
2018-01-16T12:14:08.513Z,69.50
2018-01-16T12:16:42.037Z,73.10
2018-01-16T12:19:14.888Z,73.10
2018-01-16T12:21:47.494Z,74.20
2018-01-16T12:24:20.585Z,75.40
2018-01-16T12:26:53.129Z,75.00
2018-01-16T12:29:25.769Z,75.90
2018-01-16T12:31:59.346Z,76.40
2018-01-16T12:34:31.812Z,76.60
2018-01-16T12:37:04.634Z,77.30
2018-01-16T12:39:38.105Z,77.20
2018-01-16T12:42:10.785Z,77.30
2018-01-16T12:44:44.355Z,77.10
2018-01-16T12:47:17.418Z,77.10
2018-01-16T12:49:50.786Z,77.60
2018-01-16T12:52:23.295Z,76.70
2018-01-16T12:54:56.592Z,76.30
2018-01-16T12:57:29.261Z,76.20
2018-01-16T13:00:01.794Z,75.80
2018-01-16T13:02:35.388Z,76.10
2018-01-16T13:05:08.042Z,76.00
2018-01-16T13:07:40.591Z,76.50
2018-01-16T13:10:13.077Z,76.30
2018-01-16T13:12:46.525Z,76.30
2018-01-16T13:15:19.895Z,76.20
2018-01-16T13:17:52.490Z,76.30
2018-01-16T13:20:25.011Z,75.90
2018-01-16T13:22:57.489Z,76.30
2018-01-16T13:25:30.009Z,75.50
2018-01-16T13:28:04.221Z,75.20
2018-01-16T13:30:37.044Z,75.20
2018-01-16T13:33:09.491Z,75.40
2018-01-16T13:35:42.043Z,75.60
2018-01-16T13:38:14.730Z,75.90
2018-01-16T13:40:48.013Z,76.80
2018-01-16T13:43:21.344Z,77.50
2018-01-16T13:45:54.013Z,77.20
2018-01-16T13:48:26.682Z,77.20
2018-01-16T13:51:00.098Z,77.70
2018-01-16T13:53:32.925Z,77.90
2018-01-16T13:56:05.541Z,77.90
2018-01-16T13:58:38.254Z,78.00
2018-01-16T14:01:10.853Z,78.70
2018-01-16T14:03:44.260Z,79.20
2018-01-16T14:06:16.826Z,79.50
2018-01-16T14:08:50.990Z,79.70
2018-01-16T14:11:23.755Z,79.60
2018-01-16T14:13:57.018Z,79.80
2018-01-16T14:16:30.698Z,80.00
2018-01-16T14:19:03.709Z,79.70
2018-01-16T14:21:37.036Z,79.80
2018-01-16T14:24:10.534Z,80.00
2018-01-16T14:26:43.975Z,80.10
2018-01-16T14:29:16.585Z,80.50
2018-01-16T14:31:49.981Z,81.10
2018-01-16T14:34:23.293Z,79.10
2018-01-16T14:36:55.922Z,78.40
2018-01-16T14:39:28.614Z,79.20
2018-01-16T14:42:02.004Z,80.30
2018-01-16T14:44:34.628Z,80.30
2018-01-16T14:47:07.269Z,80.90
2018-01-16T14:49:39.780Z,81.20
2018-01-16T14:52:13.183Z,81.60
2018-01-16T14:54:45.974Z,81.70
2018-01-16T14:57:18.918Z,81.90
2018-01-16T14:59:51.645Z,82.30
2018-01-16T15:02:25.960Z,82.80
2018-01-16T15:04:59.301Z,82.80
2018-01-16T15:07:32.948Z,83.20
2018-01-16T15:10:05.797Z,83.20
2018-01-16T15:12:38.805Z,83.40
2018-01-16T15:15:11.250Z,83.30
2018-01-16T15:17:43.726Z,84.00
2018-01-16T15:20:17.090Z,83.40
2018-01-16T15:22:49.958Z,83.40
2018-01-16T15:25:23.288Z,83.80
2018-01-16T15:27:56.589Z,83.60
2018-01-16T15:30:30.151Z,83.60
2018-01-16T15:33:02.836Z,83.60
2018-01-16T15:35:36.221Z,84.20
2018-01-16T15:38:09.380Z,84.20
2018-01-16T15:40:41.961Z,84.20
2018-01-16T15:43:15.265Z,82.60
2018-01-16T15:45:48.768Z,82.60
2018-01-16T15:48:21.609Z,82.60
2018-01-16T15:50:54.192Z,82.60
2018-01-16T15:53:27.537Z,82.30
2018-01-16T15:56:00.877Z,82.60
2018-01-16T15:58:33.621Z,82.60
2018-01-16T16:01:06.157Z,82.80
2018-01-16T16:03:38.776Z,82.70
2018-01-16T16:06:11.701Z,83.30
2018-01-16T16:08:44.511Z,83.00
2018-01-16T16:11:17.372Z,83.30
2018-01-16T16:13:50.006Z,83.30
2018-01-16T16:16:23.465Z,83.40
2018-01-16T16:18:56.281Z,83.60
2018-01-16T16:21:28.724Z,83.70
2018-01-16T16:24:02.079Z,84.00
2018-01-16T16:26:35.668Z,84.00
2018-01-16T16:29:09.316Z,84.00
2018-01-16T16:31:42.093Z,84.00
2018-01-16T16:34:15.456Z,84.00
2018-01-16T16:36:48.032Z,84.00
2018-01-16T16:39:20.581Z,84.00
2018-01-16T16:41:53.237Z,84.00
2018-01-16T16:44:25.946Z,84.10
2018-01-16T16:46:58.768Z,84.10
2018-01-16T16:49:32.804Z,84.10
2018-01-16T16:52:05.780Z,84.10
2018-01-16T16:54:38.292Z,84.10
2018-01-16T16:57:11.677Z,83.10
2018-01-16T16:59:44.413Z,83.10
2018-01-16T17:02:17.214Z,82.90
2018-01-16T17:04:49.909Z,82.30
2018-01-16T17:07:23.201Z,81.80
2018-01-16T17:09:56.792Z,81.80
2018-01-16T17:12:31.004Z,81.90
2018-01-16T17:15:04.321Z,81.30
2018-01-16T17:17:37.256Z,81.70
2018-01-16T17:20:10.273Z,81.40
2018-01-16T17:22:43.334Z,81.40
2018-01-16T17:25:16.419Z,80.80
2018-01-16T17:27:49.705Z,81.20
2018-01-16T17:30:23.522Z,80.70
2018-01-16T17:32:57.283Z,81.00
2018-01-16T17:35:30.042Z,80.90
2018-01-16T17:38:03.569Z,80.80
2018-01-16T17:40:36.789Z,80.70
2018-01-16T17:43:10.645Z,80.20
2018-01-16T17:45:43.544Z,80.40
2018-01-16T17:48:17.369Z,80.30
2018-01-16T17:50:50.623Z,80.20
2018-01-16T17:53:23.913Z,80.30
2018-01-16T17:55:57.894Z,80.70
2018-01-16T17:58:31.859Z,80.70
2018-01-16T18:01:05.339Z,80.40
2018-01-16T18:03:41.490Z,80.20
2018-01-16T18:06:14.545Z,80.20
2018-01-16T18:08:49.751Z,79.80
2018-01-16T18:11:23.690Z,79.70
2018-01-16T18:13:56.471Z,79.80
2018-01-16T18:16:31.443Z,79.80
2018-01-16T18:19:04.804Z,79.70
2018-01-16T18:21:38.078Z,79.40
2018-01-16T18:24:10.898Z,79.20
2018-01-16T18:26:45.635Z,79.70
2018-01-16T18:29:18.329Z,79.10
2018-01-16T18:31:51.061Z,79.30
2018-01-16T18:34:24.360Z,79.90
2018-01-16T18:36:57.942Z,79.80
2018-01-16T18:39:31.305Z,79.90
2018-01-16T18:42:05.391Z,80.00
2018-01-16T18:44:39.609Z,79.90
2018-01-16T18:47:13.642Z,79.90
2018-01-16T18:49:47.634Z,79.70
2018-01-16T18:52:20.869Z,79.40
2018-01-16T18:54:54.419Z,79.40
2018-01-16T18:57:29.960Z,79.70
2018-01-16T19:00:03.008Z,79.70
2018-01-16T19:02:36.085Z,80.30
2018-01-16T19:05:10.480Z,80.90
2018-01-16T19:07:44.122Z,81.10
2018-01-16T19:10:19.341Z,81.30
2018-01-16T19:12:54.427Z,81.60
2018-01-16T19:15:27.533Z,81.50
2018-01-16T19:18:01.552Z,81.60
2018-01-16T19:20:36.298Z,81.50
2018-01-16T19:23:10.145Z,81.60
2018-01-16T19:25:43.857Z,81.70
2018-01-16T19:28:17.380Z,81.70
2018-01-16T19:30:52.735Z,81.70
2018-01-16T19:33:27.453Z,81.60
2018-01-16T19:36:03.360Z,81.60
2018-01-16T19:38:38.181Z,81.60
2018-01-16T19:41:13.880Z,81.50
2018-01-16T19:43:50.113Z,81.60
2018-01-16T19:46:25.634Z,81.80
2018-01-16T19:49:00.941Z,81.90
2018-01-16T19:51:37.602Z,81.90
2018-01-16T19:54:14.115Z,81.90
2018-01-16T19:56:51.751Z,82.00
2018-01-16T19:59:31.385Z,82.20
2018-01-16T20:02:07.555Z,82.00
2018-01-16T20:04:45.362Z,82.30
2018-01-16T20:07:21.174Z,82.30
2018-01-16T20:09:56.721Z,82.40
2018-01-16T20:12:33.230Z,82.70
2018-01-16T20:15:09.026Z,83.00
2018-01-16T20:17:44.972Z,83.40
2018-01-16T20:20:21.477Z,82.80
2018-01-16T20:22:57.689Z,82.50
2018-01-16T20:25:33.527Z,82.70
2018-01-16T20:28:09.115Z,82.90
2018-01-16T20:30:45.923Z,83.40
2018-01-16T20:33:21.809Z,83.40
2018-01-16T20:35:58.684Z,83.30
2018-01-16T20:38:35.322Z,83.30
2018-01-16T20:41:13.218Z,82.80
2018-01-16T20:43:48.639Z,82.80
2018-01-16T20:46:24.399Z,82.30
2018-01-16T20:49:01.116Z,82.30
2018-01-16T20:51:36.920Z,82.20
2018-01-16T20:54:13.614Z,82.20
2018-01-16T20:56:50.567Z,82.50
2018-01-16T20:59:28.733Z,82.40
2018-01-16T21:02:04.999Z,82.20
2018-01-16T21:04:40.956Z,82.30
2018-01-16T21:07:16.628Z,82.30
2018-01-16T21:09:51.870Z,82.40
2018-01-16T21:12:27.827Z,82.70
2018-01-16T21:15:03.341Z,82.30
2018-01-16T21:17:39.784Z,81.40
2018-01-16T21:20:16.156Z,81.40
2018-01-16T21:22:53.976Z,81.40
2018-01-16T21:25:29.737Z,81.40
2018-01-16T21:28:05.494Z,81.50
2018-01-16T21:30:40.618Z,81.70
2018-01-16T21:33:16.748Z,81.80
2018-01-16T21:35:52.421Z,82.10
2018-01-16T21:38:28.953Z,82.40
2018-01-16T21:41:04.659Z,82.60
2018-01-16T21:43:39.979Z,82.60
2018-01-16T21:46:14.198Z,82.60
2018-01-16T21:48:50.046Z,82.60
2018-01-16T21:51:25.972Z,82.60
2018-01-16T21:54:01.670Z,82.70
2018-01-16T21:56:38.236Z,82.70
2018-01-16T21:59:13.751Z,82.90
2018-01-16T22:01:50.341Z,82.70
2018-01-16T22:04:25.292Z,82.70
2018-01-16T22:07:00.515Z,82.80
2018-01-16T22:09:35.838Z,82.60
2018-01-16T22:12:11.544Z,82.50
2018-01-16T22:14:47.458Z,82.40
2018-01-16T22:17:23.078Z,82.40
2018-01-16T22:19:58.383Z,82.50
2018-01-16T22:22:35.120Z,82.90
2018-01-16T22:25:10.568Z,82.90
2018-01-16T22:27:46.194Z,83.00
2018-01-16T22:30:21.454Z,83.10
2018-01-16T22:32:57.023Z,83.10
2018-01-16T22:35:32.749Z,83.00
2018-01-16T22:38:07.963Z,82.90
2018-01-16T22:40:42.739Z,83.20
2018-01-16T22:43:17.781Z,83.20
2018-01-16T22:45:53.517Z,83.20
2018-01-16T22:48:28.204Z,83.80
2018-01-16T22:51:03.685Z,83.30
2018-01-16T22:53:39.980Z,83.50
2018-01-16T22:56:14.786Z,83.40
2018-01-16T22:58:49.100Z,83.70
2018-01-16T23:01:22.388Z,83.60
2018-01-16T23:03:55.259Z,83.70
2018-01-16T23:06:28.113Z,83.50
2018-01-16T23:09:01.573Z,82.70
2018-01-16T23:11:34.325Z,82.70
2018-01-16T23:14:07.724Z,82.60
2018-01-16T23:16:40.745Z,82.60
2018-01-16T23:19:13.446Z,82.60
2018-01-16T23:21:46.252Z,82.40
2018-01-16T23:24:19.503Z,82.50
2018-01-16T23:26:52.373Z,82.60
2018-01-16T23:29:25.661Z,82.80
2018-01-16T23:31:58.857Z,82.90
2018-01-16T23:34:32.020Z,83.00
2018-01-16T23:37:04.952Z,83.10
2018-01-16T23:39:38.342Z,83.30
2018-01-16T23:42:10.933Z,83.30
2018-01-16T23:44:43.446Z,83.40
2018-01-16T23:47:16.034Z,83.60
2018-01-16T23:49:49.258Z,83.70
2018-01-16T23:52:21.846Z,83.80
2018-01-16T23:54:56.021Z,83.80
2018-01-16T23:57:28.857Z,83.80
